Valdez, AK

12:35 PM AKDT on July 26, 2016 (GMT -0800)
Valdez | | Change Station

Elev 121 ft 61.13 °N, 146.25 °W | Updated 19 minutes ago

Overcast
Overcast
55 °F
Feels Like 55 °F
N
4
Wind Variable Wind from West

Today
High -- | Low -- °F
--% Chance of Precip.
Yesterday
High -- | Low -- °F
Precip. -- in
Pressure 29.92 in
Visibility 10.0 miles
Clouds Few 600 ft
Mostly Cloudy 8500 ft
Overcast 12000 ft
Dew Point 46 °F
Humidity 72%
Rainfall 0.02 in
Snow Depth Not available.
5:04 AM 10:36 PM
Waning Gibbous, 51% visible
METAR PAVD 262016Z 28003KT 10SM FEW006 BKN085 OVC120 13/08 A2992 RMK AO1 1947Z WEA: NONE TWR WND 19004KT
Pressure 29.92 in
Visibility 10.0 miles
Clouds Few 600 ft
Mostly Cloudy 8500 ft
Overcast 12000 ft
Dew Point 46 °F
Humidity 72%
Rainfall 0.02 in
Snow Depth Not available.
5:04 AM 10:36 PM
Waning Gibbous, 51% visible
METAR PAVD 262016Z 28003KT 10SM FEW006 BKN085 OVC120 13/08 A2992 RMK AO1 1947Z WEA: NONE TWR WND 19004KT

10-Day Weather Forecast

Almanac

Astronomy

Jul. 26, 2016 Rise Set
Actual Time
Civil Twilight
Nautical Twilight
Astronomical Twilight
Moon
Length of Visible Light
Length of Day
Tomorrow will be .
, % of the Moon is Illuminated

Today's Extremes

State Highs State Lows

Community

WunderPhotos

Upload Photos

1,927,678 photos uploaded!

WunderBlog® & News

Nearby

Air Quality

  Air Quality AQ Index Pollutant
Not available.

Snow Depth

Station Depth Elevation

Earthquake Activity

City Distance Mag. Time & Date
Minimum magnitude displayed is 2.5.

Coastal Water Temperatures

Place Temperature

Stations

Nearby Weather Stations

Station Location Temp. Windchill Dew Point Humidity Wind Precip. Elev Updated Type
                   

Watches & Warnings

There are currently no watches in effect.